sensor_id;sensor_type;location;lat;lon;timestamp;P1;durP1;ratioP1;P2;durP2;ratioP2
19705;SDS011;10003;52.506;4.700;2024-02-23T00:01:18;13.50;;;4.37;;
19705;SDS011;10003;52.506;4.700;2024-02-23T00:03:47;6.17;;;2.60;;
19705;SDS011;10003;52.506;4.700;2024-02-23T00:06:17;11.40;;;5.30;;
19705;SDS011;10003;52.506;4.700;2024-02-23T00:08:45;9.33;;;4.87;;
19705;SDS011;10003;52.506;4.700;2024-02-23T00:11:14;9.87;;;3.83;;
19705;SDS011;10003;52.506;4.700;2024-02-23T00:13:42;13.13;;;4.10;;
19705;SDS011;10003;52.506;4.700;2024-02-23T00:16:11;17.20;;;3.40;;
19705;SDS011;10003;52.506;4.700;2024-02-23T00:18:39;12.33;;;4.90;;
19705;SDS011;10003;52.506;4.700;2024-02-23T00:21:09;14.30;;;3.63;;
19705;SDS011;10003;52.506;4.700;2024-02-23T00:23:39;7.00;;;3.43;;
19705;SDS011;10003;52.506;4.700;2024-02-23T00:26:08;15.53;;;4.33;;
19705;SDS011;10003;52.506;4.700;2024-02-23T00:28:37;6.53;;;2.90;;
19705;SDS011;10003;52.506;4.700;2024-02-23T00:31:05;4.30;;;2.27;;
19705;SDS011;10003;52.506;4.700;2024-02-23T00:33:34;13.50;;;3.40;;
19705;SDS011;10003;52.506;4.700;2024-02-23T00:36:04;11.50;;;3.27;;
19705;SDS011;10003;52.506;4.700;2024-02-23T00:38:32;6.13;;;2.43;;
19705;SDS011;10003;52.506;4.700;2024-02-23T00:41:02;9.50;;;3.07;;
19705;SDS011;10003;52.506;4.700;2024-02-23T00:43:36;7.27;;;3.23;;
19705;SDS011;10003;52.506;4.700;2024-02-23T00:46:05;6.23;;;2.60;;
19705;SDS011;10003;52.506;4.700;2024-02-23T00:48:34;12.57;;;3.03;;
19705;SDS011;10003;52.506;4.700;2024-02-23T00:51:02;8.73;;;1.87;;
19705;SDS011;10003;52.506;4.700;2024-02-23T00:53:31;7.57;;;2.53;;
19705;SDS011;10003;52.506;4.700;2024-02-23T00:56:00;7.23;;;3.30;;
19705;SDS011;10003;52.506;4.700;2024-02-23T00:58:31;5.33;;;2.50;;
19705;SDS011;10003;52.506;4.700;2024-02-23T01:00:59;4.87;;;2.67;;
19705;SDS011;10003;52.506;4.700;2024-02-23T01:03:28;11.90;;;3.40;;
19705;SDS011;10003;52.506;4.700;2024-02-23T01:05:56;10.43;;;3.30;;
19705;SDS011;10003;52.506;4.700;2024-02-23T01:08:25;10.93;;;2.83;;
19705;SDS011;10003;52.506;4.700;2024-02-23T01:10:53;8.03;;;3.37;;
19705;SDS011;10003;52.506;4.700;2024-02-23T01:13:22;8.23;;;1.93;;
19705;SDS011;10003;52.506;4.700;2024-02-23T01:15:52;10.60;;;2.57;;
19705;SDS011;10003;52.506;4.700;2024-02-23T01:18:21;3.20;;;2.30;;
19705;SDS011;10003;52.506;4.700;2024-02-23T01:20:50;6.20;;;2.53;;
19705;SDS011;10003;52.506;4.700;2024-02-23T01:23:18;8.90;;;2.30;;
19705;SDS011;10003;52.506;4.700;2024-02-23T01:25:47;10.70;;;2.17;;
19705;SDS011;10003;52.506;4.700;2024-02-23T01:28:15;5.50;;;2.27;;
19705;SDS011;10003;52.506;4.700;2024-02-23T01:30:44;12.10;;;3.00;;
19705;SDS011;10003;52.506;4.700;2024-02-23T01:33:14;3.87;;;2.03;;
19705;SDS011;10003;52.506;4.700;2024-02-23T01:35:43;10.20;;;2.60;;
19705;SDS011;10003;52.506;4.700;2024-02-23T01:38:11;5.53;;;2.83;;
19705;SDS011;10003;52.506;4.700;2024-02-23T01:40:45;6.10;;;2.03;;
19705;SDS011;10003;52.506;4.700;2024-02-23T01:43:14;2.53;;;1.80;;
19705;SDS011;10003;52.506;4.700;2024-02-23T01:45:42;3.70;;;1.93;;
19705;SDS011;10003;52.506;4.700;2024-02-23T01:48:10;8.83;;;2.67;;
19705;SDS011;10003;52.506;4.700;2024-02-23T01:50:41;4.43;;;2.10;;
19705;SDS011;10003;52.506;4.700;2024-02-23T01:53:10;5.10;;;2.00;;
19705;SDS011;10003;52.506;4.700;2024-02-23T01:55:40;6.53;;;2.70;;
19705;SDS011;10003;52.506;4.700;2024-02-23T01:58:09;9.00;;;3.73;;
19705;SDS011;10003;52.506;4.700;2024-02-23T02:00:37;16.73;;;4.00;;
19705;SDS011;10003;52.506;4.700;2024-02-23T02:03:06;8.80;;;2.73;;
19705;SDS011;10003;52.506;4.700;2024-02-23T02:05:38;2.60;;;1.80;;
19705;SDS011;10003;52.506;4.700;2024-02-23T02:08:08;4.47;;;2.07;;
19705;SDS011;10003;52.506;4.700;2024-02-23T02:10:38;10.57;;;3.20;;
19705;SDS011;10003;52.506;4.700;2024-02-23T02:13:07;8.53;;;3.17;;
19705;SDS011;10003;52.506;4.700;2024-02-23T02:15:35;6.27;;;2.07;;
19705;SDS011;10003;52.506;4.700;2024-02-23T02:18:04;4.87;;;2.70;;
19705;SDS011;10003;52.506;4.700;2024-02-23T02:20:33;3.00;;;1.73;;
19705;SDS011;10003;52.506;4.700;2024-02-23T02:23:04;4.70;;;3.10;;
19705;SDS011;10003;52.506;4.700;2024-02-23T02:25:35;4.23;;;2.13;;
19705;SDS011;10003;52.506;4.700;2024-02-23T02:28:05;5.10;;;2.87;;
19705;SDS011;10003;52.506;4.700;2024-02-23T02:30:34;4.93;;;2.87;;
19705;SDS011;10003;52.506;4.700;2024-02-23T02:33:03;3.07;;;1.83;;
19705;SDS011;10003;52.506;4.700;2024-02-23T02:35:32;5.33;;;2.67;;
19705;SDS011;10003;52.506;4.700;2024-02-23T02:38:01;2.17;;;1.97;;
19705;SDS011;10003;52.506;4.700;2024-02-23T02:40:29;2.77;;;2.03;;
19705;SDS011;10003;52.506;4.700;2024-02-23T02:42:59;7.23;;;2.47;;
19705;SDS011;10003;52.506;4.700;2024-02-23T02:45:28;2.43;;;1.47;;
19705;SDS011;10003;52.506;4.700;2024-02-23T02:47:56;9.97;;;2.87;;
19705;SDS011;10003;52.506;4.700;2024-02-23T02:50:25;7.70;;;2.57;;
19705;SDS011;10003;52.506;4.700;2024-02-23T02:52:53;1.87;;;1.50;;
19705;SDS011;10003;52.506;4.700;2024-02-23T02:55:22;2.73;;;1.63;;
19705;SDS011;10003;52.506;4.700;2024-02-23T02:57:50;1.43;;;1.17;;
19705;SDS011;10003;52.506;4.700;2024-02-23T03:00:20;5.07;;;1.90;;
19705;SDS011;10003;52.506;4.700;2024-02-23T03:02:49;8.47;;;3.03;;
19705;SDS011;10003;52.506;4.700;2024-02-23T03:05:17;4.63;;;2.23;;
19705;SDS011;10003;52.506;4.700;2024-02-23T03:07:46;7.00;;;2.60;;
19705;SDS011;10003;52.506;4.700;2024-02-23T03:10:13;8.00;;;1.90;;
19705;SDS011;10003;52.506;4.700;2024-02-23T03:12:45;8.67;;;2.17;;
19705;SDS011;10003;52.506;4.700;2024-02-23T03:15:13;2.83;;;2.17;;
19705;SDS011;10003;52.506;4.700;2024-02-23T03:17:43;1.83;;;1.43;;
19705;SDS011;10003;52.506;4.700;2024-02-23T03:20:12;4.03;;;1.77;;
19705;SDS011;10003;52.506;4.700;2024-02-23T03:22:40;7.00;;;2.13;;
19705;SDS011;10003;52.506;4.700;2024-02-23T03:25:10;3.27;;;1.90;;
19705;SDS011;10003;52.506;4.700;2024-02-23T03:27:39;7.43;;;2.17;;
19705;SDS011;10003;52.506;4.700;2024-02-23T03:30:08;1.00;;;1.00;;
19705;SDS011;10003;52.506;4.700;2024-02-23T03:32:36;3.27;;;1.67;;
19705;SDS011;10003;52.506;4.700;2024-02-23T03:35:07;3.30;;;2.13;;
19705;SDS011;10003;52.506;4.700;2024-02-23T03:37:36;2.57;;;1.50;;
19705;SDS011;10003;52.506;4.700;2024-02-23T03:40:05;2.30;;;1.27;;
19705;SDS011;10003;52.506;4.700;2024-02-23T03:42:34;3.90;;;2.47;;
19705;SDS011;10003;52.506;4.700;2024-02-23T03:45:03;2.80;;;1.80;;
19705;SDS011;10003;52.506;4.700;2024-02-23T03:47:32;9.63;;;1.93;;
19705;SDS011;10003;52.506;4.700;2024-02-23T03:50:01;5.03;;;2.30;;
19705;SDS011;10003;52.506;4.700;2024-02-23T03:52:31;4.63;;;1.67;;
19705;SDS011;10003;52.506;4.700;2024-02-23T03:54:59;8.00;;;2.93;;
19705;SDS011;10003;52.506;4.700;2024-02-23T03:57:30;5.97;;;1.63;;
19705;SDS011;10003;52.506;4.700;2024-02-23T03:59:59;11.10;;;1.93;;
19705;SDS011;10003;52.506;4.700;2024-02-23T04:02:29;6.73;;;2.67;;
19705;SDS011;10003;52.506;4.700;2024-02-23T04:04:57;6.30;;;2.20;;
19705;SDS011;10003;52.506;4.700;2024-02-23T04:07:26;6.20;;;2.30;;
19705;SDS011;10003;52.506;4.700;2024-02-23T04:09:56;6.40;;;2.20;;
19705;SDS011;10003;52.506;4.700;2024-02-23T04:12:24;6.73;;;1.93;;
19705;SDS011;10003;52.506;4.700;2024-02-23T04:14:53;7.07;;;2.30;;
19705;SDS011;10003;52.506;4.700;2024-02-23T04:17:21;5.50;;;3.07;;
19705;SDS011;10003;52.506;4.700;2024-02-23T04:19:49;2.63;;;1.40;;
19705;SDS011;10003;52.506;4.700;2024-02-23T04:22:18;1.40;;;1.30;;
19705;SDS011;10003;52.506;4.700;2024-02-23T04:24:47;6.73;;;2.00;;
19705;SDS011;10003;52.506;4.700;2024-02-23T04:27:17;1.43;;;1.40;;
19705;SDS011;10003;52.506;4.700;2024-02-23T04:29:45;3.57;;;1.43;;
19705;SDS011;10003;52.506;4.700;2024-02-23T04:32:14;3.90;;;1.30;;
19705;SDS011;10003;52.506;4.700;2024-02-23T04:34:43;9.33;;;1.83;;
19705;SDS011;10003;52.506;4.700;2024-02-23T04:37:11;4.17;;;1.63;;
19705;SDS011;10003;52.506;4.700;2024-02-23T04:39:40;8.37;;;2.07;;
19705;SDS011;10003;52.506;4.700;2024-02-23T04:42:08;3.83;;;1.57;;
19705;SDS011;10003;52.506;4.700;2024-02-23T04:44:38;5.47;;;1.77;;
19705;SDS011;10003;52.506;4.700;2024-02-23T04:47:07;4.87;;;1.73;;
19705;SDS011;10003;52.506;4.700;2024-02-23T04:49:35;15.03;;;1.70;;
19705;SDS011;10003;52.506;4.700;2024-02-23T04:52:05;8.33;;;2.63;;
19705;SDS011;10003;52.506;4.700;2024-02-23T04:54:35;1.93;;;1.83;;
19705;SDS011;10003;52.506;4.700;2024-02-23T04:57:03;8.43;;;2.73;;
19705;SDS011;10003;52.506;4.700;2024-02-23T04:59:32;7.80;;;2.07;;
19705;SDS011;10003;52.506;4.700;2024-02-23T05:02:02;15.83;;;4.77;;
19705;SDS011;10003;52.506;4.700;2024-02-23T05:04:30;10.97;;;4.50;;
19705;SDS011;10003;52.506;4.700;2024-02-23T05:06:59;13.27;;;4.60;;
19705;SDS011;10003;52.506;4.700;2024-02-23T05:09:28;8.87;;;2.10;;
19705;SDS011;10003;52.506;4.700;2024-02-23T05:11:58;7.07;;;2.30;;
19705;SDS011;10003;52.506;4.700;2024-02-23T05:14:27;5.97;;;2.57;;
19705;SDS011;10003;52.506;4.700;2024-02-23T05:16:55;7.70;;;4.13;;
19705;SDS011;10003;52.506;4.700;2024-02-23T05:19:25;11.93;;;4.07;;
19705;SDS011;10003;52.506;4.700;2024-02-23T05:21:54;12.90;;;4.10;;
19705;SDS011;10003;52.506;4.700;2024-02-23T05:24:22;14.40;;;5.23;;
19705;SDS011;10003;52.506;4.700;2024-02-23T05:26:52;10.20;;;4.13;;
19705;SDS011;10003;52.506;4.700;2024-02-23T05:29:20;11.17;;;4.30;;
19705;SDS011;10003;52.506;4.700;2024-02-23T05:31:51;21.33;;;4.30;;
19705;SDS011;10003;52.506;4.700;2024-02-23T05:34:20;4.57;;;1.60;;
19705;SDS011;10003;52.506;4.700;2024-02-23T05:36:50;15.60;;;3.20;;
19705;SDS011;10003;52.506;4.700;2024-02-23T05:39:20;5.83;;;2.37;;
19705;SDS011;10003;52.506;4.700;2024-02-23T05:41:49;10.53;;;4.50;;
19705;SDS011;10003;52.506;4.700;2024-02-23T05:44:17;4.63;;;3.20;;
19705;SDS011;10003;52.506;4.700;2024-02-23T05:46:46;4.87;;;2.60;;
19705;SDS011;10003;52.506;4.700;2024-02-23T05:49:14;6.30;;;2.63;;
19705;SDS011;10003;52.506;4.700;2024-02-23T05:51:43;4.77;;;1.97;;
19705;SDS011;10003;52.506;4.700;2024-02-23T05:54:13;3.43;;;1.50;;
19705;SDS011;10003;52.506;4.700;2024-02-23T05:56:41;2.70;;;1.80;;
19705;SDS011;10003;52.506;4.700;2024-02-23T05:59:12;1.40;;;0.83;;
19705;SDS011;10003;52.506;4.700;2024-02-23T06:01:40;5.50;;;1.30;;
19705;SDS011;10003;52.506;4.700;2024-02-23T06:04:10;8.17;;;2.53;;
19705;SDS011;10003;52.506;4.700;2024-02-23T06:06:41;7.43;;;2.70;;
19705;SDS011;10003;52.506;4.700;2024-02-23T06:09:10;6.77;;;2.80;;
19705;SDS011;10003;52.506;4.700;2024-02-23T06:11:40;6.90;;;2.50;;
19705;SDS011;10003;52.506;4.700;2024-02-23T06:14:09;5.80;;;2.77;;
19705;SDS011;10003;52.506;4.700;2024-02-23T06:16:38;8.63;;;2.20;;
19705;SDS011;10003;52.506;4.700;2024-02-23T06:19:08;5.83;;;1.80;;
19705;SDS011;10003;52.506;4.700;2024-02-23T06:21:36;5.37;;;2.30;;
19705;SDS011;10003;52.506;4.700;2024-02-23T06:24:07;2.53;;;1.20;;
19705;SDS011;10003;52.506;4.700;2024-02-23T06:26:36;2.93;;;2.20;;
19705;SDS011;10003;52.506;4.700;2024-02-23T06:29:07;4.10;;;1.63;;
19705;SDS011;10003;52.506;4.700;2024-02-23T06:31:37;3.57;;;1.70;;
19705;SDS011;10003;52.506;4.700;2024-02-23T06:34:06;2.63;;;1.90;;
19705;SDS011;10003;52.506;4.700;2024-02-23T06:36:34;4.77;;;2.20;;
19705;SDS011;10003;52.506;4.700;2024-02-23T06:39:04;4.63;;;2.50;;
19705;SDS011;10003;52.506;4.700;2024-02-23T06:41:32;4.77;;;2.47;;
19705;SDS011;10003;52.506;4.700;2024-02-23T06:44:01;6.67;;;3.03;;
19705;SDS011;10003;52.506;4.700;2024-02-23T06:46:31;5.87;;;2.70;;
19705;SDS011;10003;52.506;4.700;2024-02-23T06:48:59;6.07;;;2.87;;
19705;SDS011;10003;52.506;4.700;2024-02-23T06:51:28;3.70;;;2.80;;
19705;SDS011;10003;52.506;4.700;2024-02-23T06:53:57;4.90;;;3.13;;
19705;SDS011;10003;52.506;4.700;2024-02-23T06:56:25;6.93;;;4.03;;
19705;SDS011;10003;52.506;4.700;2024-02-23T06:58:54;3.67;;;2.40;;
19705;SDS011;10003;52.506;4.700;2024-02-23T07:01:23;5.20;;;3.27;;
19705;SDS011;10003;52.506;4.700;2024-02-23T07:03:55;3.87;;;2.60;;
19705;SDS011;10003;52.506;4.700;2024-02-23T07:06:24;8.77;;;4.27;;
19705;SDS011;10003;52.506;4.700;2024-02-23T07:08:55;4.73;;;3.23;;
19705;SDS011;10003;52.506;4.700;2024-02-23T07:11:23;10.03;;;4.20;;
19705;SDS011;10003;52.506;4.700;2024-02-23T07:13:52;4.00;;;3.10;;
19705;SDS011;10003;52.506;4.700;2024-02-23T07:16:21;8.20;;;4.27;;
19705;SDS011;10003;52.506;4.700;2024-02-23T07:18:49;3.17;;;2.20;;
19705;SDS011;10003;52.506;4.700;2024-02-23T07:21:19;8.57;;;4.47;;
19705;SDS011;10003;52.506;4.700;2024-02-23T07:23:48;4.43;;;4.03;;
19705;SDS011;10003;52.506;4.700;2024-02-23T07:26:17;6.90;;;3.97;;
19705;SDS011;10003;52.506;4.700;2024-02-23T07:28:46;7.30;;;5.63;;
19705;SDS011;10003;52.506;4.700;2024-02-23T07:31:15;5.13;;;4.63;;
19705;SDS011;10003;52.506;4.700;2024-02-23T07:33:44;6.23;;;4.43;;
19705;SDS011;10003;52.506;4.700;2024-02-23T07:36:14;6.30;;;4.40;;
19705;SDS011;10003;52.506;4.700;2024-02-23T07:38:44;6.33;;;4.03;;
19705;SDS011;10003;52.506;4.700;2024-02-23T07:41:14;5.90;;;4.43;;
19705;SDS011;10003;52.506;4.700;2024-02-23T07:43:44;8.30;;;4.60;;
19705;SDS011;10003;52.506;4.700;2024-02-23T07:46:15;6.90;;;4.10;;
19705;SDS011;10003;52.506;4.700;2024-02-23T07:48:44;6.37;;;4.00;;
19705;SDS011;10003;52.506;4.700;2024-02-23T07:51:15;4.77;;;4.33;;
19705;SDS011;10003;52.506;4.700;2024-02-23T07:53:44;8.20;;;5.63;;
19705;SDS011;10003;52.506;4.700;2024-02-23T07:56:13;8.27;;;5.47;;
19705;SDS011;10003;52.506;4.700;2024-02-23T07:58:43;6.30;;;5.03;;
19705;SDS011;10003;52.506;4.700;2024-02-23T08:01:12;9.87;;;7.30;;
19705;SDS011;10003;52.506;4.700;2024-02-23T08:03:42;10.10;;;6.47;;
19705;SDS011;10003;52.506;4.700;2024-02-23T08:06:11;4.37;;;3.60;;
19705;SDS011;10003;52.506;4.700;2024-02-23T08:08:40;10.60;;;7.50;;
19705;SDS011;10003;52.506;4.700;2024-02-23T08:11:10;10.90;;;6.00;;
19705;SDS011;10003;52.506;4.700;2024-02-23T08:13:40;9.00;;;7.90;;
19705;SDS011;10003;52.506;4.700;2024-02-23T08:16:09;8.50;;;5.50;;
19705;SDS011;10003;52.506;4.700;2024-02-23T08:18:38;12.97;;;7.17;;
19705;SDS011;10003;52.506;4.700;2024-02-23T08:21:06;8.87;;;7.37;;
19705;SDS011;10003;52.506;4.700;2024-02-23T08:23:36;9.97;;;7.53;;
19705;SDS011;10003;52.506;4.700;2024-02-23T08:26:06;8.60;;;6.57;;
19705;SDS011;10003;52.506;4.700;2024-02-23T08:28:38;6.30;;;5.70;;
19705;SDS011;10003;52.506;4.700;2024-02-23T08:31:07;5.47;;;4.30;;
19705;SDS011;10003;52.506;4.700;2024-02-23T08:33:35;4.73;;;3.87;;
19705;SDS011;10003;52.506;4.700;2024-02-23T08:36:04;7.67;;;4.80;;
19705;SDS011;10003;52.506;4.700;2024-02-23T08:38:33;6.83;;;4.77;;
19705;SDS011;10003;52.506;4.700;2024-02-23T08:41:05;5.27;;;4.77;;
19705;SDS011;10003;52.506;4.700;2024-02-23T08:43:34;5.97;;;3.80;;
19705;SDS011;10003;52.506;4.700;2024-02-23T08:46:05;6.50;;;4.83;;
19705;SDS011;10003;52.506;4.700;2024-02-23T08:48:36;6.03;;;5.07;;
19705;SDS011;10003;52.506;4.700;2024-02-23T08:51:04;3.73;;;3.43;;
19705;SDS011;10003;52.506;4.700;2024-02-23T08:53:33;7.20;;;5.57;;
19705;SDS011;10003;52.506;4.700;2024-02-23T08:56:02;5.97;;;5.23;;
19705;SDS011;10003;52.506;4.700;2024-02-23T08:58:31;2.33;;;2.13;;
19705;SDS011;10003;52.506;4.700;2024-02-23T09:01:00;8.60;;;6.43;;
19705;SDS011;10003;52.506;4.700;2024-02-23T09:03:32;8.20;;;4.83;;
19705;SDS011;10003;52.506;4.700;2024-02-23T09:06:00;3.60;;;2.77;;
19705;SDS011;10003;52.506;4.700;2024-02-23T09:08:31;6.37;;;5.47;;
19705;SDS011;10003;52.506;4.700;2024-02-23T09:11:01;7.20;;;4.70;;
19705;SDS011;10003;52.506;4.700;2024-02-23T09:13:29;9.13;;;5.20;;
19705;SDS011;10003;52.506;4.700;2024-02-23T09:15:58;6.83;;;5.77;;
19705;SDS011;10003;52.506;4.700;2024-02-23T09:18:27;5.53;;;4.20;;
19705;SDS011;10003;52.506;4.700;2024-02-23T09:20:59;6.67;;;5.67;;
19705;SDS011;10003;52.506;4.700;2024-02-23T09:23:27;5.40;;;4.90;;
19705;SDS011;10003;52.506;4.700;2024-02-23T09:25:56;7.70;;;5.60;;
19705;SDS011;10003;52.506;4.700;2024-02-23T09:28:25;5.97;;;5.27;;
19705;SDS011;10003;52.506;4.700;2024-02-23T09:30:54;6.80;;;4.57;;
19705;SDS011;10003;52.506;4.700;2024-02-23T09:33:24;6.70;;;5.90;;
19705;SDS011;10003;52.506;4.700;2024-02-23T09:35:52;6.50;;;5.90;;
19705;SDS011;10003;52.506;4.700;2024-02-23T09:38:23;5.73;;;4.47;;
19705;SDS011;10003;52.506;4.700;2024-02-23T09:40:52;6.40;;;4.70;;
19705;SDS011;10003;52.506;4.700;2024-02-23T09:43:21;5.80;;;5.20;;
19705;SDS011;10003;52.506;4.700;2024-02-23T09:45:50;7.27;;;4.83;;
19705;SDS011;10003;52.506;4.700;2024-02-23T09:48:19;6.83;;;4.30;;
19705;SDS011;10003;52.506;4.700;2024-02-23T09:50:49;5.43;;;3.90;;
19705;SDS011;10003;52.506;4.700;2024-02-23T09:53:18;8.40;;;4.70;;
19705;SDS011;10003;52.506;4.700;2024-02-23T09:55:50;6.70;;;5.20;;
19705;SDS011;10003;52.506;4.700;2024-02-23T09:58:19;9.93;;;4.60;;
19705;SDS011;10003;52.506;4.700;2024-02-23T10:00:48;3.73;;;2.57;;
19705;SDS011;10003;52.506;4.700;2024-02-23T10:03:16;4.80;;;4.23;;
19705;SDS011;10003;52.506;4.700;2024-02-23T10:05:46;6.63;;;4.63;;
19705;SDS011;10003;52.506;4.700;2024-02-23T10:08:15;6.27;;;4.20;;
19705;SDS011;10003;52.506;4.700;2024-02-23T10:10:45;7.30;;;4.43;;
19705;SDS011;10003;52.506;4.700;2024-02-23T10:13:19;5.73;;;3.47;;
19705;SDS011;10003;52.506;4.700;2024-02-23T10:15:48;6.27;;;3.07;;
19705;SDS011;10003;52.506;4.700;2024-02-23T10:18:37;6.77;;;3.40;;
19705;SDS011;10003;52.506;4.700;2024-02-23T10:21:06;4.60;;;3.10;;
19705;SDS011;10003;52.506;4.700;2024-02-23T10:23:35;2.23;;;2.03;;
19705;SDS011;10003;52.506;4.700;2024-02-23T10:26:04;5.17;;;3.20;;
19705;SDS011;10003;52.506;4.700;2024-02-23T10:28:35;7.63;;;3.63;;
19705;SDS011;10003;52.506;4.700;2024-02-23T10:31:05;6.00;;;3.60;;
19705;SDS011;10003;52.506;4.700;2024-02-23T10:33:37;4.57;;;3.10;;
19705;SDS011;10003;52.506;4.700;2024-02-23T10:36:07;5.13;;;2.90;;
19705;SDS011;10003;52.506;4.700;2024-02-23T10:38:39;2.17;;;1.97;;
19705;SDS011;10003;52.506;4.700;2024-02-23T10:41:09;6.60;;;2.60;;
19705;SDS011;10003;52.506;4.700;2024-02-23T10:43:44;5.57;;;2.93;;
19705;SDS011;10003;52.506;4.700;2024-02-23T10:46:12;6.97;;;3.00;;
19705;SDS011;10003;52.506;4.700;2024-02-23T10:48:42;5.73;;;2.93;;
19705;SDS011;10003;52.506;4.700;2024-02-23T10:51:14;5.93;;;2.77;;
19705;SDS011;10003;52.506;4.700;2024-02-23T10:53:46;3.87;;;2.57;;
19705;SDS011;10003;52.506;4.700;2024-02-23T10:56:17;6.50;;;2.33;;
19705;SDS011;10003;52.506;4.700;2024-02-23T10:58:47;5.10;;;2.60;;
19705;SDS011;10003;52.506;4.700;2024-02-23T11:01:16;3.93;;;2.20;;
19705;SDS011;10003;52.506;4.700;2024-02-23T11:03:46;6.10;;;4.27;;
19705;SDS011;10003;52.506;4.700;2024-02-23T11:06:17;4.67;;;2.20;;
19705;SDS011;10003;52.506;4.700;2024-02-23T11:08:48;5.43;;;2.43;;
19705;SDS011;10003;52.506;4.700;2024-02-23T11:11:18;5.10;;;2.77;;
19705;SDS011;10003;52.506;4.700;2024-02-23T11:13:48;5.23;;;2.47;;
19705;SDS011;10003;52.506;4.700;2024-02-23T11:16:20;8.70;;;3.87;;
19705;SDS011;10003;52.506;4.700;2024-02-23T11:18:50;8.10;;;1.93;;
19705;SDS011;10003;52.506;4.700;2024-02-23T11:21:33;7.97;;;1.93;;
19705;SDS011;10003;52.506;4.700;2024-02-23T11:24:03;4.37;;;2.20;;
19705;SDS011;10003;52.506;4.700;2024-02-23T11:26:32;6.57;;;2.00;;
19705;SDS011;10003;52.506;4.700;2024-02-23T11:29:11;7.60;;;2.83;;
19705;SDS011;10003;52.506;4.700;2024-02-23T11:31:45;3.13;;;2.13;;
19705;SDS011;10003;52.506;4.700;2024-02-23T11:34:21;8.63;;;3.10;;
19705;SDS011;10003;52.506;4.700;2024-02-23T11:36:51;7.77;;;2.77;;
19705;SDS011;10003;52.506;4.700;2024-02-23T11:39:22;5.43;;;2.63;;
19705;SDS011;10003;52.506;4.700;2024-02-23T11:41:51;9.00;;;2.70;;
19705;SDS011;10003;52.506;4.700;2024-02-23T11:44:21;7.00;;;2.73;;
19705;SDS011;10003;52.506;4.700;2024-02-23T11:46:50;6.67;;;2.47;;
19705;SDS011;10003;52.506;4.700;2024-02-23T11:49:19;9.53;;;3.27;;
19705;SDS011;10003;52.506;4.700;2024-02-23T11:51:47;4.67;;;2.27;;
19705;SDS011;10003;52.506;4.700;2024-02-23T11:54:16;10.47;;;3.00;;
19705;SDS011;10003;52.506;4.700;2024-02-23T11:56:45;9.03;;;2.77;;
19705;SDS011;10003;52.506;4.700;2024-02-23T11:59:15;6.00;;;2.77;;
19705;SDS011;10003;52.506;4.700;2024-02-23T12:01:46;4.77;;;2.63;;
19705;SDS011;10003;52.506;4.700;2024-02-23T12:04:15;8.47;;;3.10;;
19705;SDS011;10003;52.506;4.700;2024-02-23T12:06:44;3.97;;;1.80;;
19705;SDS011;10003;52.506;4.700;2024-02-23T12:09:15;8.23;;;3.00;;
19705;SDS011;10003;52.506;4.700;2024-02-23T12:11:43;2.57;;;1.70;;
19705;SDS011;10003;52.506;4.700;2024-02-23T12:14:13;7.40;;;3.77;;
19705;SDS011;10003;52.506;4.700;2024-02-23T12:16:42;9.60;;;4.50;;
19705;SDS011;10003;52.506;4.700;2024-02-23T12:19:12;6.87;;;2.57;;
19705;SDS011;10003;52.506;4.700;2024-02-23T12:21:40;5.47;;;2.40;;
19705;SDS011;10003;52.506;4.700;2024-02-23T12:24:09;8.87;;;2.40;;
19705;SDS011;10003;52.506;4.700;2024-02-23T12:26:37;3.70;;;1.90;;
19705;SDS011;10003;52.506;4.700;2024-02-23T12:29:07;7.00;;;2.03;;
19705;SDS011;10003;52.506;4.700;2024-02-23T12:31:35;6.83;;;3.37;;
19705;SDS011;10003;52.506;4.700;2024-02-23T12:34:04;2.50;;;1.20;;
19705;SDS011;10003;52.506;4.700;2024-02-23T12:36:36;2.83;;;1.50;;
19705;SDS011;10003;52.506;4.700;2024-02-23T12:39:04;3.67;;;2.03;;
19705;SDS011;10003;52.506;4.700;2024-02-23T12:41:33;3.43;;;2.00;;
19705;SDS011;10003;52.506;4.700;2024-02-23T12:44:02;7.03;;;3.27;;
19705;SDS011;10003;52.506;4.700;2024-02-23T12:46:31;3.77;;;1.77;;
19705;SDS011;10003;52.506;4.700;2024-02-23T12:49:01;3.47;;;1.73;;
19705;SDS011;10003;52.506;4.700;2024-02-23T12:51:30;8.07;;;2.60;;
19705;SDS011;10003;52.506;4.700;2024-02-23T12:54:00;2.97;;;2.10;;
19705;SDS011;10003;52.506;4.700;2024-02-23T12:56:31;9.33;;;2.63;;
19705;SDS011;10003;52.506;4.700;2024-02-23T12:59:02;6.80;;;2.23;;
19705;SDS011;10003;52.506;4.700;2024-02-23T13:01:31;4.10;;;2.33;;
19705;SDS011;10003;52.506;4.700;2024-02-23T13:04:04;8.40;;;3.30;;
19705;SDS011;10003;52.506;4.700;2024-02-23T13:06:37;4.90;;;2.33;;
19705;SDS011;10003;52.506;4.700;2024-02-23T13:09:07;4.83;;;1.70;;
19705;SDS011;10003;52.506;4.700;2024-02-23T13:11:38;6.20;;;2.30;;
19705;SDS011;10003;52.506;4.700;2024-02-23T13:14:07;6.00;;;2.83;;
19705;SDS011;10003;52.506;4.700;2024-02-23T13:16:37;8.83;;;3.00;;
19705;SDS011;10003;52.506;4.700;2024-02-23T13:19:05;10.57;;;2.87;;
19705;SDS011;10003;52.506;4.700;2024-02-23T13:21:36;8.17;;;2.30;;
19705;SDS011;10003;52.506;4.700;2024-02-23T13:24:07;2.47;;;1.80;;
19705;SDS011;10003;52.506;4.700;2024-02-23T13:26:37;6.53;;;2.43;;
19705;SDS011;10003;52.506;4.700;2024-02-23T13:29:06;4.47;;;1.47;;
19705;SDS011;10003;52.506;4.700;2024-02-23T13:31:35;6.13;;;3.33;;
19705;SDS011;10003;52.506;4.700;2024-02-23T13:34:04;2.30;;;1.20;;
19705;SDS011;10003;52.506;4.700;2024-02-23T13:36:35;5.07;;;2.57;;
19705;SDS011;10003;52.506;4.700;2024-02-23T13:39:08;4.47;;;1.57;;
19705;SDS011;10003;52.506;4.700;2024-02-23T13:41:36;2.30;;;1.50;;
19705;SDS011;10003;52.506;4.700;2024-02-23T13:44:05;4.40;;;1.90;;
19705;SDS011;10003;52.506;4.700;2024-02-23T13:46:35;3.10;;;1.27;;
19705;SDS011;10003;52.506;4.700;2024-02-23T13:49:05;4.80;;;1.50;;
19705;SDS011;10003;52.506;4.700;2024-02-23T13:51:34;6.20;;;2.17;;
19705;SDS011;10003;52.506;4.700;2024-02-23T13:54:03;2.17;;;1.80;;
19705;SDS011;10003;52.506;4.700;2024-02-23T13:56:33;7.87;;;2.70;;
19705;SDS011;10003;52.506;4.700;2024-02-23T13:59:02;1.60;;;1.10;;
19705;SDS011;10003;52.506;4.700;2024-02-23T14:01:31;8.77;;;2.37;;
19705;SDS011;10003;52.506;4.700;2024-02-23T14:04:05;2.00;;;1.47;;
19705;SDS011;10003;52.506;4.700;2024-02-23T14:06:34;4.80;;;1.90;;
19705;SDS011;10003;52.506;4.700;2024-02-23T14:09:03;7.07;;;2.37;;
19705;SDS011;10003;52.506;4.700;2024-02-23T14:11:31;8.03;;;2.63;;
19705;SDS011;10003;52.506;4.700;2024-02-23T14:14:01;3.33;;;1.60;;
19705;SDS011;10003;52.506;4.700;2024-02-23T14:16:30;5.30;;;1.53;;
19705;SDS011;10003;52.506;4.700;2024-02-23T14:19:02;5.63;;;1.70;;
19705;SDS011;10003;52.506;4.700;2024-02-23T14:21:33;9.30;;;2.83;;
19705;SDS011;10003;52.506;4.700;2024-02-23T14:24:02;4.93;;;2.17;;
19705;SDS011;10003;52.506;4.700;2024-02-23T14:26:31;6.13;;;2.33;;
19705;SDS011;10003;52.506;4.700;2024-02-23T14:29:02;5.53;;;2.03;;
19705;SDS011;10003;52.506;4.700;2024-02-23T14:31:30;8.77;;;3.07;;
19705;SDS011;10003;52.506;4.700;2024-02-23T14:34:00;5.40;;;1.87;;
19705;SDS011;10003;52.506;4.700;2024-02-23T14:36:28;4.97;;;2.03;;
19705;SDS011;10003;52.506;4.700;2024-02-23T14:39:01;3.73;;;1.30;;
19705;SDS011;10003;52.506;4.700;2024-02-23T14:41:30;5.97;;;1.93;;
19705;SDS011;10003;52.506;4.700;2024-02-23T14:43:59;3.40;;;1.27;;
19705;SDS011;10003;52.506;4.700;2024-02-23T14:46:30;4.77;;;2.27;;
19705;SDS011;10003;52.506;4.700;2024-02-23T14:48:59;12.77;;;2.50;;
19705;SDS011;10003;52.506;4.700;2024-02-23T14:51:27;2.00;;;1.10;;
19705;SDS011;10003;52.506;4.700;2024-02-23T14:53:56;6.03;;;1.97;;
19705;SDS011;10003;52.506;4.700;2024-02-23T14:56:25;1.33;;;1.23;;
19705;SDS011;10003;52.506;4.700;2024-02-23T14:58:54;5.40;;;1.90;;